Time;durP1;ratioP1;P1;durP2;ratioP2;P2;SDS_P1;SDS_P2;PMS_P1;PMS_P2;Temp;Humidity;BMP_temperature;BMP_pressure;BME280_temperature;BME280_humidity;BME280_pressure;Samples;Min_cycle;Max_cycle;Signal;HPM_P1;HPM_P2
2022/09/06 00:02:19;;;;;;;2.53;2.20;;;18.00;99.90;;;;;;5005704;28;20748;-50
2022/09/06 00:04:48;;;;;;;2.70;2.00;;;18.00;99.90;;;;;;5006946;28;20335;-52
2022/09/06 00:07:16;;;;;;;2.67;2.00;;;18.00;99.90;;;;;;5005515;28;20226;-51
2022/09/06 00:09:44;;;;;;;2.67;1.97;;;18.00;99.90;;;;;;5003955;28;20356;-50
2022/09/06 00:12:13;;;;;;;4.20;2.00;;;18.00;99.90;;;;;;5006091;28;20257;-50
2022/09/06 00:14:42;;;;;;;3.27;2.30;;;18.00;99.90;;;;;;5006304;28;20229;-50
2022/09/06 00:17:10;;;;;;;4.33;2.27;;;17.90;99.90;;;;;;5006786;28;20229;-50
2022/09/06 00:19:38;;;;;;;2.23;2.00;;;17.90;99.90;;;;;;5006424;28;20227;-51
2022/09/06 00:22:06;;;;;;;3.20;2.20;;;17.90;99.90;;;;;;5005764;28;20796;-52
2022/09/06 00:24:36;;;;;;;3.00;2.17;;;17.90;99.90;;;;;;5006023;28;20330;-49
2022/09/06 00:27:04;;;;;;;2.97;2.17;;;17.80;99.90;;;;;;5004714;28;20268;-49
2022/09/06 00:29:33;;;;;;;3.07;1.90;;;17.80;99.90;;;;;;5005243;28;20299;-53
2022/09/06 00:32:03;;;;;;;2.90;2.00;;;17.80;99.90;;;;;;5005646;28;20329;-50
2022/09/06 00:34:31;;;;;;;2.47;2.07;;;17.70;99.90;;;;;;5006718;28;20750;-50
2022/09/06 00:36:59;;;;;;;4.43;1.90;;;17.80;99.90;;;;;;5004959;28;20226;-51
2022/09/06 00:39:27;;;;;;;3.97;2.33;;;17.80;99.90;;;;;;5005209;28;20756;-51
2022/09/06 00:41:55;;;;;;;2.30;1.80;;;17.80;99.90;;;;;;5005496;28;20645;-51
2022/09/06 00:44:24;;;;;;;3.07;2.03;;;17.70;99.90;;;;;;5006058;28;20309;-50
2022/09/06 00:46:54;;;;;;;4.63;1.97;;;17.80;99.90;;;;;;5005376;28;20236;-52
2022/09/06 00:49:27;;;;;;;2.53;2.00;;;17.70;99.90;;;;;;5004977;28;20693;-51
2022/09/06 00:52:00;;;;;;;2.40;1.90;;;17.70;99.90;;;;;;5004507;28;20815;-50
2022/09/06 00:54:28;;;;;;;3.97;1.97;;;17.70;99.90;;;;;;5005865;28;20797;-51
2022/09/06 00:56:58;;;;;;;2.40;2.00;;;17.60;99.90;;;;;;5004376;28;20222;-49
2022/09/06 00:59:28;;;;;;;3.13;2.27;;;17.60;99.90;;;;;;5004938;28;20886;-51
2022/09/06 01:01:57;;;;;;;2.27;1.87;;;17.60;99.90;;;;;;5005147;28;20248;-49
2022/09/06 01:04:28;;;;;;;4.57;2.10;;;17.60;99.90;;;;;;5006017;28;20296;-51
2022/09/06 01:07:05;;;;;;;2.27;2.07;;;17.70;99.90;;;;;;5006756;28;20248;-52
2022/09/06 01:09:49;;;;;;;5.10;2.17;;;17.60;99.90;;;;;;5002715;28;20241;-50
2022/09/06 01:12:33;;;;;;;2.97;1.93;;;17.60;99.90;;;;;;5004796;28;20776;-50
2022/09/06 01:15:11;;;;;;;2.50;1.97;;;17.50;99.90;;;;;;5004579;28;20238;-49
2022/09/06 01:17:48;;;;;;;4.37;1.87;;;17.50;99.90;;;;;;5004921;28;20904;-49
2022/09/06 01:20:33;;;;;;;3.20;2.20;;;17.60;99.90;;;;;;5005567;28;20226;-49
2022/09/06 01:23:31;;;;;;;2.63;2.00;;;17.50;99.90;;;;;;5009534;28;20759;-51
2022/09/06 01:26:10;;;;;;;3.23;2.30;;;17.50;99.90;;;;;;4965683;28;20249;-51
2022/09/06 01:28:43;;;;;;;3.23;2.17;;;17.50;99.90;;;;;;5007959;28;21222;-49
2022/09/06 01:31:21;;;;;;;5.80;2.30;;;17.40;99.90;;;;;;5007706;28;20321;-49
2022/09/06 01:34:11;;;;;;;4.03;2.27;;;17.40;99.90;;;;;;5008679;28;20236;-49
2022/09/06 01:36:45;;;;;;;6.80;2.10;;;17.40;99.90;;;;;;5007704;28;20317;-51
2022/09/06 01:39:35;;;;;;;4.37;2.23;;;17.30;99.90;;;;;;5006672;28;20231;-49
2022/09/06 01:42:08;;;;;;;3.57;2.23;;;17.40;99.90;;;;;;5008820;28;20280;-51
2022/09/06 01:44:40;;;;;;;2.70;2.40;;;17.30;99.90;;;;;;5007563;28;20724;-49
2022/09/06 01:47:17;;;;;;;3.57;2.30;;;17.30;99.90;;;;;;5008526;28;20233;-52
2022/09/06 01:50:03;;;;;;;2.77;2.10;;;17.30;99.90;;;;;;5007973;28;20324;-49
2022/09/06 01:52:39;;;;;;;3.07;2.37;;;17.30;99.90;;;;;;5007694;28;20311;-52
2022/09/06 01:55:21;;;;;;;2.57;2.33;;;17.30;99.90;;;;;;5010177;28;20279;-49
2022/09/06 01:58:04;;;;;;;2.73;2.20;;;17.30;99.90;;;;;;5007456;28;20754;-50
2022/09/06 02:00:40;;;;;;;3.13;2.23;;;17.30;99.90;;;;;;5008875;28;20356;-49
2022/09/06 02:03:15;;;;;;;2.87;2.30;;;17.20;99.90;;;;;;5008066;28;20241;-49
2022/09/06 02:05:47;;;;;;;3.43;2.53;;;17.30;99.90;;;;;;5010423;28;20233;-49
2022/09/06 02:08:19;;;;;;;3.07;2.13;;;17.30;99.90;;;;;;5007247;28;20659;-51
2022/09/06 02:10:52;;;;;;;4.53;2.47;;;17.20;99.90;;;;;;5008078;28;20296;-50
2022/09/06 02:13:24;;;;;;;3.07;2.30;;;17.20;99.90;;;;;;5009169;28;20241;-52
2022/09/06 02:15:59;;;;;;;2.37;2.17;;;17.20;99.90;;;;;;5007854;28;20231;-52
2022/09/06 02:18:33;;;;;;;4.97;2.30;;;17.20;99.90;;;;;;5005317;28;20321;-51
2022/09/06 02:21:02;;;;;;;3.67;2.20;;;17.10;99.90;;;;;;5006872;28;20251;-51
2022/09/06 02:23:35;;;;;;;2.97;2.67;;;17.10;99.90;;;;;;5007528;28;20241;-49
2022/09/06 02:26:08;;;;;;;3.33;2.10;;;17.10;99.90;;;;;;5006269;28;20225;-52
2022/09/06 02:28:36;;;;;;;3.40;2.40;;;17.10;99.90;;;;;;5006558;28;20240;-52
2022/09/06 02:31:11;;;;;;;2.60;2.20;;;17.10;99.90;;;;;;5006294;28;20234;-51
2022/09/06 02:33:41;;;;;;;4.17;2.17;;;17.20;99.90;;;;;;5008628;28;20311;-51
2022/09/06 02:36:09;;;;;;;3.43;2.20;;;17.10;99.90;;;;;;5007449;28;20313;-50
2022/09/06 02:38:40;;;;;;;3.03;2.43;;;17.10;99.90;;;;;;5006089;28;20242;-50
2022/09/06 02:41:09;;;;;;;3.73;2.17;;;17.10;99.90;;;;;;5007687;28;20783;-49
2022/09/06 02:43:37;;;;;;;3.83;2.13;;;17.10;99.90;;;;;;5007966;28;20285;-49
2022/09/06 02:46:07;;;;;;;4.43;2.40;;;17.00;99.90;;;;;;5008651;28;20568;-49
2022/09/06 02:48:35;;;;;;;5.63;2.00;;;17.00;99.90;;;;;;5004831;28;20243;-49
2022/09/06 02:51:04;;;;;;;3.53;2.30;;;17.00;99.90;;;;;;5007146;28;20231;-49
2022/09/06 02:53:33;;;;;;;2.83;1.93;;;17.00;99.90;;;;;;5007999;28;20229;-49
2022/09/06 02:56:01;;;;;;;2.47;2.00;;;16.90;99.90;;;;;;5007558;28;20718;-50
2022/09/06 02:58:29;;;;;;;2.30;2.10;;;16.90;99.90;;;;;;5006289;28;20246;-49
2022/09/06 03:00:57;;;;;;;4.03;2.30;;;16.90;99.90;;;;;;5006118;28;20248;-48
2022/09/06 03:03:28;;;;;;;3.63;2.20;;;16.90;99.90;;;;;;5007264;28;20236;-52
2022/09/06 03:05:56;;;;;;;4.63;2.13;;;16.90;99.90;;;;;;5007033;28;20328;-51
2022/09/06 03:08:28;;;;;;;5.93;2.33;;;16.90;99.90;;;;;;5005079;28;20241;-49
2022/09/06 03:10:56;;;;;;;3.80;2.10;;;16.90;99.90;;;;;;5006959;28;20726;-49
2022/09/06 03:13:25;;;;;;;2.50;1.90;;;16.90;99.90;;;;;;5008119;28;20768;-50
2022/09/06 03:15:55;;;;;;;4.07;1.97;;;16.90;99.90;;;;;;5008012;28;20238;-49
2022/09/06 03:18:23;;;;;;;5.00;2.47;;;16.90;99.90;;;;;;5006637;28;20320;-51
2022/09/06 03:20:54;;;;;;;2.93;2.13;;;16.80;99.90;;;;;;5006930;28;20239;-50
2022/09/06 03:23:24;;;;;;;2.53;2.30;;;16.80;99.90;;;;;;5007527;28;20319;-52
2022/09/06 03:25:52;;;;;;;4.20;2.13;;;16.90;99.90;;;;;;5008349;28;20226;-52
2022/09/06 03:28:21;;;;;;;4.97;2.13;;;16.80;99.90;;;;;;5004680;28;20710;-48
2022/09/06 03:30:51;;;;;;;2.33;2.00;;;16.80;99.90;;;;;;5005401;28;20237;-49
2022/09/06 03:33:20;;;;;;;2.80;1.80;;;16.80;99.90;;;;;;5005715;28;20232;-49
2022/09/06 03:35:50;;;;;;;2.40;2.20;;;16.90;99.90;;;;;;5006281;28;20241;-49
2022/09/06 03:38:20;;;;;;;4.43;2.33;;;16.80;99.90;;;;;;5004350;28;20665;-52
2022/09/06 03:40:48;;;;;;;3.97;2.27;;;16.90;99.90;;;;;;5006309;28;20243;-51
2022/09/06 03:43:17;;;;;;;4.47;2.40;;;16.90;99.90;;;;;;5004945;28;20325;-50
2022/09/06 03:45:47;;;;;;;2.60;2.20;;;16.90;99.90;;;;;;5008113;28;20238;-52
2022/09/06 03:48:16;;;;;;;2.87;2.00;;;16.90;99.90;;;;;;5004765;28;20303;-49
2022/09/06 03:50:45;;;;;;;2.57;2.00;;;16.80;99.90;;;;;;5005872;28;20344;-49
2022/09/06 03:53:14;;;;;;;2.40;2.20;;;16.90;99.90;;;;;;5006857;28;20236;-49
2022/09/06 03:55:46;;;;;;;4.03;2.30;;;16.80;99.90;;;;;;5005802;28;20332;-49
2022/09/06 03:58:16;;;;;;;2.73;2.20;;;16.80;99.90;;;;;;5004656;28;20224;-50
2022/09/06 04:00:44;;;;;;;4.47;2.13;;;16.80;99.90;;;;;;5006383;28;20243;-53
2022/09/06 04:03:13;;;;;;;2.40;2.10;;;16.80;99.90;;;;;;5006558;28;20311;-48
2022/09/06 04:05:45;;;;;;;4.10;2.30;;;16.80;99.90;;;;;;5006556;28;20240;-50
2022/09/06 04:08:13;;;;;;;2.30;2.10;;;16.80;99.90;;;;;;5006966;28;20320;-49
2022/09/06 04:10:41;;;;;;;5.07;1.93;;;16.80;99.90;;;;;;5006446;28;20750;-51
2022/09/06 04:13:11;;;;;;;3.70;2.27;;;16.80;99.90;;;;;;5005250;28;21226;-49
2022/09/06 04:15:39;;;;;;;3.70;2.23;;;16.90;99.90;;;;;;5005551;28;20224;-49
2022/09/06 04:18:07;;;;;;;2.73;1.90;;;16.80;99.90;;;;;;5008260;28;20257;-49
2022/09/06 04:20:36;;;;;;;2.87;1.80;;;16.80;99.90;;;;;;5008214;28;20233;-50
2022/09/06 04:23:04;;;;;;;2.27;1.90;;;16.80;99.90;;;;;;5005753;28;20225;-51
2022/09/06 04:25:33;;;;;;;3.13;2.00;;;16.80;99.90;;;;;;5007412;28;20713;-48
2022/09/06 04:28:01;;;;;;;4.13;2.00;;;16.80;99.90;;;;;;5007602;28;20233;-50
2022/09/06 04:30:30;;;;;;;4.10;1.93;;;16.70;99.90;;;;;;5004507;28;20247;-50
2022/09/06 04:32:59;;;;;;;3.60;2.07;;;16.70;99.90;;;;;;5003848;28;20241;-48
2022/09/06 04:35:27;;;;;;;2.83;1.90;;;16.60;99.90;;;;;;5006633;28;20582;-51
2022/09/06 04:37:55;;;;;;;3.10;1.93;;;16.70;99.90;;;;;;5004124;28;20221;-52
2022/09/06 04:40:23;;;;;;;4.13;2.10;;;16.60;99.90;;;;;;5003754;28;20243;-50
2022/09/06 04:42:51;;;;;;;3.53;1.90;;;16.60;99.90;;;;;;5004641;28;20804;-50
2022/09/06 04:45:19;;;;;;;5.43;2.23;;;16.60;99.90;;;;;;5006121;28;20253;-50
2022/09/06 04:47:50;;;;;;;3.87;2.13;;;16.60;99.90;;;;;;5005475;28;20232;-49
2022/09/06 04:50:18;;;;;;;4.93;2.13;;;16.60;99.90;;;;;;5006123;28;21324;-49
2022/09/06 04:52:48;;;;;;;4.27;1.70;;;16.60;99.90;;;;;;5006449;28;20320;-52
2022/09/06 04:55:16;;;;;;;5.37;1.63;;;16.50;99.90;;;;;;5008378;28;20253;-49
2022/09/06 04:57:44;;;;;;;4.17;1.90;;;16.50;99.90;;;;;;5010841;28;20242;-50
2022/09/06 05:00:18;;;;;;;3.60;2.20;;;16.50;99.90;;;;;;5010911;28;20315;-51
2022/09/06 05:02:47;;;;;;;5.00;1.80;;;16.50;99.90;;;;;;5010911;28;20255;-48
2022/09/06 05:05:16;;;;;;;2.40;1.70;;;16.50;99.90;;;;;;5011614;28;20698;-49
2022/09/06 05:07:45;;;;;;;2.47;2.00;;;16.40;99.90;;;;;;5010384;28;20667;-50
2022/09/06 05:10:13;;;;;;;3.07;1.70;;;16.40;99.90;;;;;;5009166;28;20233;-49
2022/09/06 05:12:41;;;;;;;1.90;1.60;;;16.50;99.90;;;;;;5010370;28;20237;-51
2022/09/06 05:15:11;;;;;;;4.17;1.93;;;16.40;99.90;;;;;;5010275;28;20229;-50
2022/09/06 05:17:39;;;;;;;3.53;2.37;;;16.40;99.90;;;;;;5010773;28;20324;-50
2022/09/06 05:20:09;;;;;;;3.50;1.80;;;16.40;99.90;;;;;;5011687;28;20315;-50
2022/09/06 05:22:39;;;;;;;1.97;1.50;;;16.40;99.90;;;;;;5010640;28;20878;-52
2022/09/06 05:25:09;;;;;;;4.77;2.00;;;16.40;99.90;;;;;;5010474;28;20217;-48
2022/09/06 05:27:37;;;;;;;2.63;1.70;;;16.40;99.90;;;;;;5009802;28;20225;-50
2022/09/06 05:30:06;;;;;;;2.83;1.90;;;16.40;99.90;;;;;;5008862;28;20240;-50
2022/09/06 05:32:34;;;;;;;2.33;1.80;;;16.40;99.90;;;;;;5011295;28;20326;-51
2022/09/06 05:35:02;;;;;;;2.73;1.80;;;16.40;99.90;;;;;;5008849;28;20752;-51
2022/09/06 05:37:30;;;;;;;2.97;1.40;;;16.40;99.90;;;;;;5010156;28;20280;-49
2022/09/06 05:40:00;;;;;;;2.47;1.80;;;16.40;99.90;;;;;;5008225;28;20605;-49
2022/09/06 05:42:28;;;;;;;3.00;2.00;;;16.40;99.90;;;;;;5008111;28;20253;-48
2022/09/06 05:44:56;;;;;;;2.70;1.50;;;16.40;99.90;;;;;;5009491;28;20739;-52
2022/09/06 05:47:25;;;;;;;4.00;1.40;;;16.40;99.90;;;;;;5008722;28;20233;-49
2022/09/06 05:49:54;;;;;;;2.30;1.57;;;16.40;99.90;;;;;;5006807;28;20324;-51
2022/09/06 05:52:22;;;;;;;3.07;1.50;;;16.40;99.90;;;;;;5008249;28;20221;-50
2022/09/06 05:54:50;;;;;;;2.80;1.63;;;16.40;99.90;;;;;;5008520;28;20263;-49
2022/09/06 05:57:19;;;;;;;4.17;1.40;;;16.50;99.90;;;;;;5008695;28;20316;-51
2022/09/06 05:59:47;;;;;;;2.50;1.70;;;16.50;99.90;;;;;;5008610;28;20225;-51
2022/09/06 06:02:15;;;;;;;2.83;1.37;;;16.50;99.90;;;;;;5007423;28;20230;-49
2022/09/06 06:04:44;;;;;;;2.93;1.60;;;16.50;99.90;;;;;;5008856;28;20989;-49
2022/09/06 06:07:12;;;;;;;3.97;1.60;;;16.50;99.90;;;;;;5007220;28;21152;-51
2022/09/06 06:09:40;;;;;;;8.87;1.40;;;16.50;99.90;;;;;;5007800;28;20251;-51
2022/09/06 06:12:08;;;;;;;2.40;1.50;;;16.40;99.90;;;;;;5009084;28;20731;-49
2022/09/06 06:14:38;;;;;;;2.37;1.23;;;16.40;99.90;;;;;;5007893;28;20324;-50
2022/09/06 06:17:06;;;;;;;3.33;1.40;;;16.50;99.90;;;;;;5008517;28;20245;-48
2022/09/06 06:19:36;;;;;;;5.07;1.47;;;16.40;99.90;;;;;;5007582;28;20781;-50
2022/09/06 06:22:04;;;;;;;3.03;1.57;;;16.50;99.90;;;;;;5008597;28;20305;-50
2022/09/06 06:24:32;;;;;;;3.37;1.50;;;16.40;99.90;;;;;;5008807;28;20233;-48
2022/09/06 06:27:00;;;;;;;3.17;1.40;;;16.40;99.90;;;;;;5008135;28;20239;-49
2022/09/06 06:29:28;;;;;;;5.50;1.60;;;16.50;99.90;;;;;;5006743;28;20222;-52
2022/09/06 06:31:58;;;;;;;5.60;1.60;;;16.40;99.90;;;;;;5007039;28;20579;-52
2022/09/06 06:34:26;;;;;;;6.00;1.50;;;16.40;99.90;;;;;;5008000;28;20245;-48
2022/09/06 06:36:54;;;;;;;4.90;1.57;;;16.50;99.90;;;;;;5007277;28;20236;-48
2022/09/06 06:39:22;;;;;;;2.53;1.47;;;16.50;99.90;;;;;;5005990;28;20238;-48
2022/09/06 06:41:50;;;;;;;5.10;1.40;;;16.50;99.90;;;;;;5008266;28;20241;-51
2022/09/06 06:44:31;;;;;;;3.63;1.60;;;16.50;99.90;;;;;;5005083;28;20230;-51
2022/09/06 06:47:01;;;;;;;2.67;1.20;;;16.50;99.90;;;;;;5005730;28;20229;-51
2022/09/06 06:49:29;;;;;;;2.17;1.50;;;16.40;99.90;;;;;;5005539;28;20230;-50
2022/09/06 06:51:58;;;;;;;4.33;1.30;;;16.40;99.90;;;;;;5007472;28;20236;-49
2022/09/06 06:54:26;;;;;;;4.60;1.60;;;16.40;99.90;;;;;;5006369;28;20245;-50
2022/09/06 06:56:54;;;;;;;5.23;1.60;;;16.40;99.90;;;;;;5006462;28;20244;-48
2022/09/06 06:59:22;;;;;;;3.00;1.47;;;16.40;99.90;;;;;;5006376;28;20697;-49
2022/09/06 07:01:50;;;;;;;3.33;1.60;;;16.40;99.90;;;;;;5006262;28;20628;-50
2022/09/06 07:04:20;;;;;;;1.80;1.30;;;16.40;99.90;;;;;;5006789;28;20224;-51
2022/09/06 07:06:50;;;;;;;2.50;1.47;;;16.40;99.90;;;;;;5007232;28;20589;-49
2022/09/06 07:09:38;;;;;;;2.90;1.60;;;16.40;99.90;;;;;;5004744;28;20244;-49
2022/09/06 07:12:26;;;;;;;1.80;1.30;;;16.50;99.90;;;;;;5006417;28;20720;-51
2022/09/06 07:14:54;;;;;;;2.43;1.40;;;16.50;99.90;;;;;;5006475;28;20714;-49
2022/09/06 07:17:22;;;;;;;3.87;1.40;;;16.50;99.90;;;;;;5006199;28;20705;-51
2022/09/06 07:19:52;;;;;;;2.77;1.20;;;16.50;99.90;;;;;;5007112;28;20233;-48
2022/09/06 07:22:40;;;;;;;1.83;1.40;;;16.50;99.90;;;;;;5008187;28;20726;-52
2022/09/06 07:25:11;;;;;;;5.30;1.40;;;16.60;99.90;;;;;;5008177;28;20634;-49
2022/09/06 07:27:43;;;;;;;3.90;1.33;;;16.60;99.90;;;;;;5006779;28;20701;-49
2022/09/06 07:30:13;;;;;;;3.33;1.63;;;16.60;99.90;;;;;;5006883;28;20855;-51
2022/09/06 07:32:41;;;;;;;5.13;1.53;;;16.70;99.90;;;;;;5007587;28;20287;-48
2022/09/06 07:35:12;;;;;;;3.63;1.30;;;16.60;99.90;;;;;;5008743;28;20331;-50
2022/09/06 07:37:40;;;;;;;2.57;1.30;;;16.60;99.90;;;;;;5007190;28;20246;-48
2022/09/06 07:40:10;;;;;;;2.70;1.30;;;16.70;99.90;;;;;;5005396;28;20235;-49
2022/09/06 07:42:38;;;;;;;3.10;1.30;;;16.70;99.90;;;;;;5006709;28;20771;-48
2022/09/06 07:45:07;;;;;;;2.07;1.43;;;16.70;99.90;;;;;;5007020;28;20566;-49
2022/09/06 07:47:35;;;;;;;3.47;1.50;;;16.70;99.90;;;;;;5006333;28;20246;-48
2022/09/06 07:50:25;;;;;;;5.50;1.37;;;16.80;99.90;;;;;;5005131;28;20219;-51
2022/09/06 07:53:13;;;;;;;3.97;1.60;;;16.80;99.90;;;;;;5006613;28;20608;-48
2022/09/06 07:55:44;;;;;;;1.90;1.20;;;16.80;99.90;;;;;;5007492;28;20653;-51
2022/09/06 07:58:12;;;;;;;3.90;1.43;;;16.80;99.90;;;;;;5006980;28;20239;-50
2022/09/06 08:00:40;;;;;;;5.53;1.60;;;16.90;99.90;;;;;;5006675;28;20242;-49
2022/09/06 08:03:09;;;;;;;1.87;1.17;;;16.90;99.90;;;;;;5006671;28;20766;-51
2022/09/06 08:05:39;;;;;;;3.50;1.53;;;16.90;99.90;;;;;;5006895;28;20691;-49
2022/09/06 08:08:27;;;;;;;2.27;1.47;;;16.90;99.90;;;;;;5005507;28;20716;-49
2022/09/06 08:11:15;;;;;;;1.93;1.40;;;16.90;99.90;;;;;;5005796;28;20237;-48
2022/09/06 08:13:44;;;;;;;5.70;1.67;;;16.90;99.90;;;;;;5005840;28;20328;-50
2022/09/06 08:16:14;;;;;;;2.07;1.30;;;17.00;99.90;;;;;;5006636;28;20436;-49
2022/09/06 08:18:43;;;;;;;2.60;1.30;;;17.00;99.90;;;;;;5004758;28;20340;-50
2022/09/06 08:21:14;;;;;;;3.63;1.40;;;17.00;99.90;;;;;;5007316;28;20235;-48
2022/09/06 08:23:47;;;;;;;2.10;1.50;;;17.10;99.90;;;;;;5006757;28;20236;-48
2022/09/06 08:26:15;;;;;;;4.10;1.40;;;17.20;99.90;;;;;;5006728;28;20727;-51
2022/09/06 08:28:44;;;;;;;4.20;1.53;;;17.20;99.90;;;;;;5005047;28;20238;-51
2022/09/06 08:31:14;;;;;;;3.77;1.43;;;17.20;99.90;;;;;;5005961;28;20280;-50
2022/09/06 08:33:43;;;;;;;3.63;1.70;;;17.20;99.90;;;;;;5006581;28;20645;-50
2022/09/06 08:36:12;;;;;;;3.13;1.27;;;17.30;99.90;;;;;;5006138;28;20236;-50
2022/09/06 08:38:41;;;;;;;3.10;1.40;;;17.20;99.90;;;;;;5005466;28;20244;-52
2022/09/06 08:41:15;;;;;;;3.03;1.20;;;17.20;99.90;;;;;;5006734;28;20352;-50
2022/09/06 08:43:50;;;;;;;3.00;1.50;;;17.30;99.90;;;;;;5004766;28;20261;-50
2022/09/06 08:46:48;;;;;;;5.13;1.60;;;17.30;99.90;;;;;;5006032;28;20568;-50
2022/09/06 08:49:17;;;;;;;3.63;1.50;;;17.30;99.90;;;;;;5004768;28;20225;-48
2022/09/06 08:52:14;;;;;;;3.00;1.50;;;17.30;99.90;;;;;;5004783;28;20290;-48
2022/09/06 08:54:48;;;;;;;1.90;1.30;;;17.30;99.90;;;;;;5005282;28;20321;-51
2022/09/06 08:57:31;;;;;;;2.93;1.60;;;17.40;99.90;;;;;;5005292;28;20237;-52
2022/09/06 09:00:06;;;;;;;3.43;1.30;;;17.40;99.90;;;;;;5003977;28;20237;-50
2022/09/06 09:02:44;;;;;;;2.63;1.57;;;17.50;99.90;;;;;;5006006;28;20250;-49
2022/09/06 09:05:22;;;;;;;3.40;1.60;;;17.50;99.90;;;;;;5006199;28;20266;-51
2022/09/06 09:08:00;;;;;;;5.50;1.30;;;17.50;99.90;;;;;;5007067;28;20225;-51
2022/09/06 09:10:31;;;;;;;2.93;1.43;;;17.50;99.90;;;;;;5005072;28;20606;-49
2022/09/06 09:13:03;;;;;;;2.80;1.33;;;17.50;99.90;;;;;;5004669;28;20289;-51
2022/09/06 09:15:31;;;;;;;3.93;1.60;;;17.40;99.90;;;;;;5005328;28;20247;-50
2022/09/06 09:18:05;;;;;;;4.60;1.53;;;17.40;99.90;;;;;;5008423;28;20296;-50
2022/09/06 09:20:33;;;;;;;2.20;1.57;;;17.40;99.90;;;;;;5006715;28;20296;-49
2022/09/06 09:23:03;;;;;;;2.40;1.30;;;17.40;99.90;;;;;;5006869;28;20226;-52
2022/09/06 09:25:32;;;;;;;3.07;1.90;;;17.40;99.90;;;;;;5008486;28;20238;-52
2022/09/06 09:28:02;;;;;;;5.60;1.50;;;17.30;99.90;;;;;;5010156;28;20241;-50
2022/09/06 09:30:47;;;;;;;4.43;1.60;;;17.30;99.90;;;;;;5006767;28;20361;-53
2022/09/06 09:33:26;;;;;;;3.50;1.50;;;17.30;99.90;;;;;;5008974;28;20225;-48
2022/09/06 09:35:56;;;;;;;4.53;1.63;;;17.40;99.90;;;;;;5008380;28;20288;-50
2022/09/06 09:38:27;;;;;;;4.40;1.47;;;17.30;99.90;;;;;;5005430;28;20240;-49
2022/09/06 09:40:58;;;;;;;4.97;1.40;;;17.40;99.90;;;;;;5006335;28;20230;-49
2022/09/06 09:43:30;;;;;;;4.20;1.53;;;17.40;99.90;;;;;;5008369;28;20237;-52
2022/09/06 09:46:16;;;;;;;4.40;1.37;;;17.40;99.90;;;;;;5008919;28;20275;-50
2022/09/06 09:49:00;;;;;;;3.77;1.30;;;17.40;99.90;;;;;;5006931;28;20902;-51
2022/09/06 09:51:30;;;;;;;4.30;1.50;;;17.30;99.90;;;;;;5008799;28;20337;-50
2022/09/06 09:54:02;;;;;;;2.70;1.73;;;17.30;99.90;;;;;;5008971;28;20236;-49
2022/09/06 09:56:37;;;;;;;3.70;1.57;;;17.30;99.90;;;;;;5011915;28;20330;-51
2022/09/06 09:59:19;;;;;;;3.13;1.47;;;17.20;99.90;;;;;;5011583;28;20294;-51
2022/09/06 10:01:47;;;;;;;4.23;1.50;;;17.20;99.90;;;;;;5012361;28;20244;-51
2022/09/06 10:04:20;;;;;;;3.10;1.20;;;17.20;99.90;;;;;;5011674;28;20233;-51
2022/09/06 10:07:11;;;;;;;5.67;1.60;;;17.30;99.90;;;;;;5008570;28;20714;-50
2022/09/06 10:09:42;;;;;;;2.90;1.37;;;17.40;99.90;;;;;;5007108;28;20248;-49
2022/09/06 10:12:17;;;;;;;2.93;1.50;;;17.50;99.90;;;;;;5008970;28;20238;-49
2022/09/06 10:14:47;;;;;;;2.43;1.50;;;17.50;99.90;;;;;;5007954;28;20242;-49
2022/09/06 10:17:20;;;;;;;4.33;1.40;;;17.70;99.90;;;;;;5008166;28;20245;-52
2022/09/06 10:19:48;;;;;;;5.00;1.67;;;17.70;99.90;;;;;;5007248;28;20582;-51
2022/09/06 10:22:28;;;;;;;2.53;1.53;;;17.80;99.90;;;;;;5008450;28;20228;-50
2022/09/06 10:25:24;;;;;;;5.97;2.23;;;17.80;99.90;;;;;;5006889;28;20784;-49
2022/09/06 10:28:22;;;;;;;2.83;1.70;;;17.90;99.90;;;;;;5009758;28;20588;-49
2022/09/06 10:31:12;;;;;;;5.50;1.60;;;18.00;99.90;;;;;;5010026;28;20238;-49
2022/09/06 10:33:53;;;;;;;3.70;1.90;;;18.10;99.90;;;;;;5012226;28;20308;-51
2022/09/06 10:36:27;;;;;;;2.43;1.50;;;18.10;99.90;;;;;;5012376;28;20234;-49
2022/09/06 10:38:58;;;;;;;5.83;1.60;;;18.00;99.90;;;;;;5008083;28;20239;-52
2022/09/06 10:41:47;;;;;;;4.10;1.60;;;18.00;99.90;;;;;;5010367;28;20659;-51
2022/09/06 10:44:26;;;;;;;3.93;1.60;;;18.00;99.90;;;;;;5008451;28;21089;-50
2022/09/06 10:47:02;;;;;;;1.70;1.50;;;18.00;99.90;;;;;;5010375;28;20237;-52
2022/09/06 10:49:33;;;;;;;3.87;1.80;;;17.90;99.90;;;;;;5007737;28;21226;-51
2022/09/06 10:52:05;;;;;;;5.33;2.60;;;18.00;99.90;;;;;;5009247;28;21325;-52
2022/09/06 10:54:39;;;;;;;5.50;2.10;;;18.00;99.90;;;;;;5009318;28;20840;-51
2022/09/06 10:57:13;;;;;;;3.73;1.90;;;17.90;99.90;;;;;;5009500;28;20718;-49
2022/09/06 11:00:05;;;;;;;4.17;1.70;;;17.90;99.90;;;;;;5008394;28;20234;-50
2022/09/06 11:02:41;;;;;;;3.80;1.80;;;17.80;99.90;;;;;;5009611;28;20332;-52
2022/09/06 11:05:13;;;;;;;4.27;1.97;;;17.70;99.90;;;;;;5009869;28;20226;-52
2022/09/06 11:08:03;;;;;;;5.37;1.90;;;17.80;99.90;;;;;;5007656;28;20222;-52
2022/09/06 11:10:54;;;;;;;2.10;1.90;;;17.70;99.90;;;;;;5005982;28;20305;-51
2022/09/06 11:13:27;;;;;;;3.77;1.80;;;17.70;99.90;;;;;;5007082;28;20302;-52
2022/09/06 11:16:03;;;;;;;2.77;1.47;;;17.80;99.90;;;;;;5009932;28;20820;-50
2022/09/06 11:18:36;;;;;;;4.80;2.03;;;17.80;99.90;;;;;;5006909;28;20241;-49
2022/09/06 11:21:30;;;;;;;2.47;1.67;;;17.80;99.90;;;;;;5004750;28;21450;-52
2022/09/06 11:24:09;;;;;;;6.83;2.03;;;17.70;99.90;;;;;;5003529;28;20244;-51
2022/09/06 11:26:43;;;;;;;6.73;1.93;;;17.70;99.90;;;;;;5005636;28;20585;-52
2022/09/06 11:29:20;;;;;;;2.33;1.90;;;17.80;99.90;;;;;;5004678;28;20691;-51
2022/09/06 11:31:53;;;;;;;4.97;1.87;;;17.90;99.90;;;;;;5005804;28;20693;-51
2022/09/06 11:34:53;;;;;;;3.90;1.70;;;17.90;99.90;;;;;;5005675;28;20237;-51
2022/09/06 11:37:27;;;;;;;6.10;1.93;;;17.80;99.90;;;;;;5005764;28;20234;-51
2022/09/06 11:40:07;;;;;;;5.83;1.57;;;17.80;99.90;;;;;;5004030;28;20231;-52
2022/09/06 11:43:14;;;;;;;2.03;1.80;;;17.80;99.90;;;;;;5006286;28;20242;-52
2022/09/06 11:45:47;;;;;;;2.93;1.87;;;17.70;99.90;;;;;;5005139;28;20218;-52
2022/09/06 11:48:42;;;;;;;4.27;1.97;;;17.60;99.90;;;;;;5006244;28;20688;-53
2022/09/06 11:51:11;;;;;;;3.13;1.73;;;17.40;99.90;;;;;;5006669;28;20320;-51
2022/09/06 11:54:20;;;;;;;2.10;1.83;;;17.40;99.90;;;;;;5004678;28;20333;-50
2022/09/06 11:56:54;;;;;;;1.97;1.53;;;17.30;99.90;;;;;;4996592;28;20328;-52
2022/09/06 11:59:42;;;;;;;3.33;2.17;;;17.20;99.90;;;;;;5003975;28;20595;-51
2022/09/06 12:02:30;;;;;;;2.53;1.80;;;17.30;99.90;;;;;;5004507;28;20233;-51
2022/09/06 12:05:18;;;;;;;6.20;2.00;;;17.30;99.90;;;;;;5005170;28;20699;-49
2022/09/06 12:08:25;;;;;;;3.10;1.90;;;17.30;99.90;;;;;;5007653;28;20233;-49
2022/09/06 12:11:26;;;;;;;5.03;1.90;;;17.40;99.90;;;;;;5005251;28;20324;-49
2022/09/06 12:14:02;;;;;;;5.50;2.10;;;17.60;99.90;;;;;;5002963;28;20249;-51
2022/09/06 12:17:07;;;;;;;5.50;2.00;;;17.80;99.90;;;;;;5004778;28;20748;-52
2022/09/06 12:19:43;;;;;;;3.90;1.80;;;18.00;99.90;;;;;;5003649;28;20239;-51
2022/09/06 12:23:00;;;;;;;5.83;2.07;;;18.10;99.90;;;;;;5005505;28;21041;-51
2022/09/06 12:25:54;;;;;;;4.20;1.90;;;18.20;99.90;;;;;;5004637;28;20246;-51
2022/09/06 12:28:35;;;;;;;4.00;2.03;;;18.30;99.90;;;;;;5003441;28;20594;-51
2022/09/06 12:31:32;;;;;;;3.10;2.20;;;18.40;99.90;;;;;;5004216;28;20240;-51
2022/09/06 12:34:08;;;;;;;4.07;1.97;;;18.40;99.90;;;;;;5003086;28;20251;-52
2022/09/06 12:36:48;;;;;;;6.13;2.30;;;18.50;99.90;;;;;;5004885;28;20239;-52
2022/09/06 12:39:16;;;;;;;3.83;2.47;;;18.60;99.90;;;;;;5003830;28;20333;-52
2022/09/06 12:41:49;;;;;;;3.33;2.00;;;18.60;99.90;;;;;;5007120;28;20261;-52
2022/09/06 12:44:21;;;;;;;6.00;2.13;;;18.60;99.90;;;;;;5006734;28;20242;-51
2022/09/06 12:46:51;;;;;;;6.53;2.10;;;18.60;99.90;;;;;;5005029;28;20230;-51
2022/09/06 12:49:22;;;;;;;4.07;1.93;;;18.50;99.90;;;;;;5003478;28;20227;-50
2022/09/06 12:52:05;;;;;;;5.10;2.17;;;18.50;99.90;;;;;;5005734;28;20691;-49
2022/09/06 12:54:33;;;;;;;3.17;2.10;;;18.50;99.90;;;;;;5006371;28;20247;-52
2022/09/06 12:57:13;;;;;;;3.87;2.00;;;18.40;99.90;;;;;;5004671;28;20234;-52
2022/09/06 12:59:48;;;;;;;5.10;2.40;;;18.40;99.90;;;;;;5001501;28;20249;-51
2022/09/06 13:02:23;;;;;;;5.53;2.23;;;18.40;99.90;;;;;;5004190;28;20358;-49
2022/09/06 13:04:55;;;;;;;4.73;2.30;;;18.40;99.90;;;;;;5004381;28;20324;-52
2022/09/06 13:07:27;;;;;;;3.40;1.90;;;18.30;99.90;;;;;;5005685;28;20231;-52
2022/09/06 13:09:57;;;;;;;5.27;2.40;;;18.40;99.90;;;;;;5002268;28;20229;-50
2022/09/06 13:12:28;;;;;;;3.93;2.07;;;18.30;99.90;;;;;;5005529;28;20247;-49
2022/09/06 13:15:26;;;;;;;4.83;2.10;;;18.40;99.90;;;;;;5004940;28;20757;-49
2022/09/06 13:18:22;;;;;;;5.27;2.10;;;18.40;99.90;;;;;;5008200;28;20238;-52
2022/09/06 13:21:02;;;;;;;5.37;2.30;;;18.40;99.90;;;;;;5006531;28;20710;-49
2022/09/06 13:23:41;;;;;;;7.23;2.37;;;18.50;99.90;;;;;;5008607;28;20326;-50